^^
Station Historical Data
Daily Summary for December 1, 2017 Units:  Metric    English   Both
« Previous Day
Next Day »
Daily Weekly Monthly Yearly Custom
  High: Low: Average:
Temperature: 33.2 °C 14.6 °C 22.8 °C
Dew Point: 2 °C -14.6 °C -3.3 °C
Humidity: 37% 4% 19%
Wind Speed: 28.8km/h 0km/h 9.7km/h
Wind Gust: 38.6km/h - -
Wind- - SSW
Pressure: 1010.4 hPa 1004.6 hPa -
Precipitation: 0 mm    
Historical Graphs
 
 
Tabular Data for December 1, 2017
Time Temperature Dew Point Pressure Wind Wind Speed Wind Gust Humidity Rainfall Rate (Hourly) solar Conditions
00:07 21.3 °C -6.4 °C 1010.4 hPa SSW 13 km/h 19.3 km/h 15% 0 mm 0.0 W/m2
00:12 21.3 °C -6.4 °C 1010 hPa SSW 16.3 km/h 17.7 km/h 15% 0 mm 0.0 W/m2
00:22 21.3 °C -5.5 °C 1010 hPa SSW 19.5 km/h 19.5 km/h 16% 0 mm 0.0 W/m2
00:28 21.2 °C -4.8 °C 1010 hPa SSW 17.7 km/h 24.1 km/h 17% 0 mm 0.0 W/m2
00:33 21.1 °C -4.9 °C 1010 hPa SSW 19.5 km/h 25.7 km/h 17% 0 mm 0.0 W/m2
00:42 21 °C -5 °C 1010 hPa South 13 km/h 16.1 km/h 17% 0 mm 0.0 W/m2
00:52 20.8 °C -5.2 °C 1010 hPa South 11.1 km/h 12.9 km/h 17% 0 mm 0.0 W/m2
00:57 20.7 °C -4.5 °C 1009.7 hPa South 7.9 km/h 12.9 km/h 18% 0 mm 0.0 W/m2
01:02 20.6 °C -3.8 °C 1010 hPa South 7.9 km/h 11.3 km/h 19% 0 mm 0.0 W/m2
01:07 20.5 °C -3.9 °C 1009.7 hPa South 11.1 km/h 14.5 km/h 19% 0 mm 0.0 W/m2
01:17 20.2 °C -3.5 °C 1009.7 hPa South 7.9 km/h 9.7 km/h 20% 0 mm 0.0 W/m2
01:22 20.2 °C -2.8 °C 1009.7 hPa South 7.9 km/h 11.3 km/h 21% 0 mm 0.0 W/m2
01:32 20 °C -3.7 °C 1009.4 hPa South 6.4 km/h 8 km/h 20% 0 mm 0.0 W/m2
01:37 19.6 °C -4 °C 1009 hPa South 9.7 km/h 11.3 km/h 20% 0 mm 0.0 W/m2
01:42 19.4 °C -3.5 °C 1009 hPa South 7.9 km/h 9.7 km/h 21% 0 mm 0.0 W/m2
01:48 19.4 °C -3.5 °C 1009 hPa South 6.4 km/h 11.3 km/h 21% 0 mm 0.0 W/m2
01:53 19.4 °C -4.1 °C 1009.4 hPa South 6.4 km/h 9.7 km/h 20% 0 mm 0.0 W/m2
01:58 19.5 °C -4.1 °C 1009 hPa South 7.9 km/h 11.3 km/h 20% 0 mm 0.0 W/m2
02:13 19.2 °C -3.7 °C 1009 hPa SSW 7.9 km/h 12.9 km/h 21% 0 mm 0.0 W/m2
02:18 19.2 °C -3.7 °C 1009 hPa SSW 4.7 km/h 9.7 km/h 21% 0 mm 0.0 W/m2
02:23 19.2 °C -4.3 °C 1009 hPa SSW 9.7 km/h 11.3 km/h 20% 0 mm 0.0 W/m2
02:28 19.1 °C -4.4 °C 1009 hPa SSW 11.1 km/h 11.3 km/h 20% 0 mm 0.0 W/m2
02:33 19 °C -4.5 °C 1009 hPa SSW 11.1 km/h 14.5 km/h 20% 0 mm 0.0 W/m2
02:38 19.1 °C -4.4 °C 1008.7 hPa SSW 9.7 km/h 16.1 km/h 20% 0 mm 0.0 W/m2
02:48 19.1 °C -4.4 °C 1008.4 hPa SSW 9.7 km/h 11.3 km/h 20% 0 mm 0.0 W/m2
02:53 19.1 °C -5.1 °C 1008.4 hPa SSW 6.4 km/h 9.7 km/h 19% 0 mm 0.0 W/m2
03:08 18.7 °C -5.4 °C 1008.7 hPa Calm   4.8 km/h 19% 0 mm 0.0 W/m2
03:29 17.8 °C -4.8 °C 1008.4 hPa SSW 6.4 km/h 6.4 km/h 21% 0 mm 0.0 W/m2
03:40 17.2 °C -5.3 °C 1008.4 hPa SSW 4.7 km/h 4.8 km/h 21% 0 mm 0.0 W/m2
03:45 17 °C -4.9 °C 1008.4 hPa SSW 6.4 km/h 6.4 km/h 22% 0 mm 0.0 W/m2
03:50 16.9 °C -4.4 °C 1008.4 hPa SSW 4.7 km/h 6.4 km/h 23% 0 mm 0.0 W/m2
03:55 16.8 °C -3.3 °C 1008.4 hPa SSW 7.9 km/h 8 km/h 25% 0 mm 0.0 W/m2
04:06 16.7 °C -1.9 °C 1008.4 hPa SSW 7.9 km/h 9.7 km/h 28% 0 mm 0.0 W/m2
04:11 16.7 °C -1.9 °C 1008.4 hPa SSW 6.4 km/h 8 km/h 28% 0 mm 0.0 W/m2
04:20 16.6 °C -1.1 °C 1008.4 hPa SSW 7.9 km/h 8 km/h 30% 0 mm 0.0 W/m2
04:25 16.4 °C -1.2 °C 1008.4 hPa SSW 4.7 km/h 6.4 km/h 30% 0 mm 0.0 W/m2
04:30 16.3 °C -1.3 °C 1008.4 hPa SSW 6.4 km/h 6.4 km/h 30% 0 mm 0.0 W/m2
04:35 16.1 °C -1.5 °C 1008.4 hPa SSW 6.4 km/h 6.4 km/h 30% 0 mm 0.0 W/m2
04:41 15.9 °C -1.7 °C 1008.4 hPa SSW 4.7 km/h 4.8 km/h 30% 0 mm 0.0 W/m2
04:51 15.7 °C -1.8 °C 1008.4 hPa Calm     30% 0 mm 0.0 W/m2
05:06 15.4 °C -1.2 °C 1008.7 hPa Calm     32% 0 mm 0.0 W/m2
05:34 15 °C -1.6 °C 1008.7 hPa Calm     32% 0 mm 0.0 W/m2
05:56 14.6 °C -0.7 °C 1008.7 hPa Calm     35% 0 mm 11.0 W/m2
06:04 14.7 °C -0.6 °C 1008.7 hPa Calm     35% 0 mm 21.0 W/m2
06:14 15.1 °C -0.3 °C 1009 hPa Calm     35% 0 mm 39.0 W/m2
06:24 15.6 °C 1 °C 1009 hPa Calm     37% 0 mm 67.0 W/m2
06:33 16.1 °C 1.4 °C 1009 hPa Calm     37% 0 mm 95.0 W/m2
06:39 16.4 °C 1.7 °C 1009 hPa Calm     37% 0 mm 113.0 W/m2
06:49 16.9 °C 1.7 °C 1009 hPa Calm     36% 0 mm 153.0 W/m2
06:55 17.2 °C 2 °C 1009 hPa Calm     36% 0 mm 174.0 W/m2
07:02 17.4 °C 1.8 °C 1009 hPa Calm     35% 0 mm 202.0 W/m2
07:12 17.9 °C 1.4 °C 1009.4 hPa Calm     33% 0 mm 262.0 W/m2
07:22 18.2 °C 1.2 °C 1009.4 hPa SSW 7.9 km/h 9.7 km/h 32% 0 mm 299.0 W/m2
07:35 18.4 °C 1.4 °C 1009.7 hPa SSW 6.4 km/h 8 km/h 32% 0 mm 167.0 W/m2
07:51 18.9 °C 1.4 °C 1010 hPa SSW 7.9 km/h 9.7 km/h 31% 0 mm 366.0 W/m2
08:04 19.7 °C 1.2 °C 1010 hPa SSW 9.7 km/h 11.3 km/h 29% 0 mm 424.0 W/m2
08:16 20.1 °C 1.5 °C 1009.7 hPa SSW 7.9 km/h 11.3 km/h 29% 0 mm 464.0 W/m2
08:28 20.4 °C 1.3 °C 1009.4 hPa SSW 11.1 km/h 14.5 km/h 28% 0 mm 512.0 W/m2
08:37 20.9 °C 0.7 °C 1009.7 hPa SSW 9.7 km/h 14.5 km/h 26% 0 mm 540.0 W/m2
08:42 21.1 °C 0.8 °C 1009.4 hPa SSW 9.7 km/h 12.9 km/h 26% 0 mm 555.0 W/m2
08:53 21.7 °C 0.8 °C 1009.4 hPa SSW 7.9 km/h 11.3 km/h 25% 0 mm 589.0 W/m2
09:03 22.4 °C -1 °C 1009.7 hPa SSW 7.9 km/h 9.7 km/h 21% 0 mm 621.0 W/m2
09:09 22.7 °C -0.8 °C 1009.7 hPa Calm   9.7 km/h 21% 0 mm 635.0 W/m2
09:18 23.4 °C -1.5 °C 1009.7 hPa Calm     19% 0 mm 668.0 W/m2
09:27 24.1 °C -1.7 °C 1009.4 hPa Calm     18% 0 mm 694.0 W/m2
10:09 26.2 °C -4.4 °C 1009.4 hPa SW 9.7 km/h 14.5 km/h 13% 0 mm 796.0 W/m2
10:25 26.6 °C -2.2 °C 1009.4 hPa SW 11.1 km/h 14.5 km/h 15% 0 mm 831.0 W/m2
10:43 27.1 °C -2.7 °C 1009 hPa SW 9.7 km/h 14.5 km/h 14% 0 mm 874.0 W/m2
11:15 28.3 °C -7.6 °C 1008.7 hPa SW 9.7 km/h 16.1 km/h 9% 0 mm 928.0 W/m2
11:58 29.5 °C -8.2 °C 1008.4 hPa SSW 6.4 km/h 17.7 km/h 8% 0 mm 1090.0 W/m2
12:14 29.9 °C -9.6 °C 1008.4 hPa Calm     7% 0 mm 1121.0 W/m2
12:29 30.3 °C -11.3 °C 1008.4 hPa SSW 6.4 km/h 16.1 km/h 6% 0 mm 998.0 W/m2
12:42 30.3 °C -11.3 °C 1007.7 hPa SSW 4.7 km/h 16.1 km/h 6% 0 mm 993.0 W/m2
13:09 30.6 °C -13.3 °C 1007.7 hPa SSW 9.7 km/h 14.5 km/h 5% 0 mm 986.0 W/m2
14:11 32.7 °C -14.6 °C 1006.7 hPa SSW 11.1 km/h 27.4 km/h 4% 0 mm 1025.0 W/m2
14:49 32.3 °C -9.9 °C 1006 hPa SSW 11.1 km/h 14.5 km/h 6% 0 mm 475.0 W/m2
15:01 32.5 °C -7.7 °C 1006 hPa SSW 14.3 km/h 19.3 km/h 7% 0 mm 529.0 W/m2
15:15 33.2 °C -7.2 °C 1006 hPa SSW 17.7 km/h 29 km/h 7% 0 mm 1081.0 W/m2
15:30 32.4 °C -6.1 °C 1005.6 hPa SSW 11.1 km/h 20.9 km/h 8% 0 mm 323.0 W/m2
16:15 31.8 °C -3.6 °C 1005.3 hPa SSW 20.9 km/h 30.6 km/h 10% 0 mm 366.0 W/m2
16:23 31.8 °C -5 °C 1005.3 hPa SSW 28.8 km/h 38.6 km/h 9% 0 mm 302.0 W/m2
16:36 31.2 °C -5.4 °C 1005.3 hPa SSW 27.4 km/h 32.2 km/h 9% 0 mm 204.0 W/m2
16:51 31.1 °C -4.1 °C 1005 hPa SSW 22.7 km/h 25.7 km/h 10% 0 mm 357.0 W/m2
17:06 30.9 °C -3 °C 1005 hPa SSW 14.3 km/h 20.9 km/h 11% 0 mm 162.0 W/m2
17:22 30.5 °C -3.3 °C 1005 hPa SSW 16.3 km/h 22.5 km/h 11% 0 mm 113.0 W/m2
17:36 30 °C -3.7 °C 1004.6 hPa South 17.7 km/h 22.5 km/h 11% 0 mm 105.0 W/m2
18:05 28.8 °C -3.4 °C 1005 hPa SSW 16.3 km/h 25.7 km/h 12% 0 mm 33.0 W/m2
18:15 28.7 °C -3.5 °C 1005.3 hPa SSW 19.5 km/h 22.5 km/h 12% 0 mm 33.0 W/m2
18:22 28.8 °C -3.4 °C 1005.6 hPa SSW 16.3 km/h 16.3 km/h 12% 0 mm 63.0 W/m2
18:32 28.5 °C -3.7 °C 1005.6 hPa SSW 22.7 km/h 33.8 km/h 12% 0 mm 51.0 W/m2
18:42 28.2 °C -3.9 °C 1005.3 hPa SSW 24.1 km/h 29 km/h 12% 0 mm 30.0 W/m2
18:48 28.1 °C -4 °C 1005.6 hPa SSW 24.1 km/h 30.6 km/h 12% 0 mm 26.0 W/m2
18:57 27.9 °C -4.1 °C 1005.6 hPa SSW 22.7 km/h 24.1 km/h 12% 0 mm 12.0 W/m2
19:07 27.9 °C -4.1 °C 1006 hPa East 9.7 km/h 32.2 km/h 12% 0 mm 11.0 W/m2
19:12 27.8 °C -4.2 °C 1005.6 hPa SW 25.9 km/h 30.6 km/h 12% 0 mm 7.0 W/m2
19:22 27.7 °C -4.3 °C 1005.3 hPa South 20.9 km/h 29 km/h 12% 0 mm 7.0 W/m2
20:02 27.7 °C -5.4 °C 1006 hPa South 13 km/h 19.3 km/h 11% 0 mm 0.0 W/m2
20:33 27.2 °C -5.8 °C 1006.7 hPa SSW 7.9 km/h 11.3 km/h 11% 0 mm 0.0 W/m2
20:43 27.1 °C -5.9 °C 1006.7 hPa SSW 4.7 km/h 8 km/h 11% 0 mm 0.0 W/m2
20:48 27 °C -6 °C 1006.3 hPa Calm     11% 0 mm 0.0 W/m2
21:25 26.7 °C -5.1 °C 1006.3 hPa SSW 11.1 km/h 12.9 km/h 12% 0 mm 0.0 W/m2
21:34 26.7 °C -5.1 °C 1006.3 hPa SSW 6.4 km/h 8 km/h 12% 0 mm 0.0 W/m2
21:39 26.6 °C -5.1 °C 1006.3 hPa SSW 4.7 km/h 9.7 km/h 12% 0 mm 0.0 W/m2
21:49 26.4 °C -5.3 °C 1006.7 hPa SSW 4.7 km/h 8 km/h 12% 0 mm 0.0 W/m2
22:20 25.9 °C -1.8 °C 1006.3 hPa SSW 17.7 km/h 19.3 km/h 16% 0 mm 0.0 W/m2
22:25 25.7 °C -2 °C 1006.3 hPa SSW 13 km/h 16.1 km/h 16% 0 mm 0.0 W/m2
22:45 24.8 °C -1.9 °C 1006.3 hPa SSW 13 km/h 16.1 km/h 17% 0 mm 0.0 W/m2
22:50 24.7 °C -2 °C 1006.3 hPa SSW 11.1 km/h 12.9 km/h 17% 0 mm 0.0 W/m2
23:10 24 °C -1.1 °C 1006.7 hPa SSW 11.1 km/h 11.3 km/h 19% 0 mm 0.0 W/m2
23:21 23.9 °C 0.2 °C 1006.7 hPa SSW 17.7 km/h 20.9 km/h 21% 0 mm 0.0 W/m2
23:31 23.8 °C 0.8 °C 1006 hPa SSW 17.7 km/h 22.5 km/h 22% 0 mm 0.0 W/m2
23:36 23.7 °C 1.3 °C 1006 hPa SSW 17.7 km/h 25.7 km/h 23% 0 mm 0.0 W/m2
23:41 23.6 °C 1.8 °C 1006 hPa SSW 13 km/h 19.3 km/h 24% 0 mm 0.0 W/m2
Canyon Roadhouse, Fishriver Canyon, Namibia
Compliments of Weather Underground - 2.25 mb